Time;durP1;ratioP1;P1;durP2;ratioP2;P2;SDS_P1;SDS_P2;PMS_P1;PMS_P2;Temp;Humidity;BMP_temperature;BMP_pressure;BME280_temperature;BME280_humidity;BME280_pressure;Samples;Min_cycle;Max_cycle;Signal;HPM_P1;HPM_P2
2021/07/30 00:01:10;;;;;;;5.68;3.30;;;18.10;59.50;;;;;;5065922;28;20043;-78
2021/07/30 00:03:36;;;;;;;5.05;3.13;;;18.10;59.60;;;;;;5065493;28;20407;-77
2021/07/30 00:06:02;;;;;;;7.53;3.17;;;18.10;59.70;;;;;;5067137;28;20025;-78
2021/07/30 00:08:28;;;;;;;3.92;3.03;;;18.10;59.70;;;;;;5065306;28;20190;-77
2021/07/30 00:10:55;;;;;;;6.38;3.15;;;18.00;59.60;;;;;;5049233;28;20035;-77
2021/07/30 00:13:22;;;;;;;3.25;2.92;;;18.10;59.90;;;;;;5066248;28;20040;-77
2021/07/30 00:15:48;;;;;;;5.28;2.92;;;18.00;59.80;;;;;;5067677;28;20040;-77
2021/07/30 00:18:15;;;;;;;4.25;2.90;;;18.00;59.90;;;;;;5065585;28;20427;-77
2021/07/30 00:20:41;;;;;;;4.75;2.97;;;18.00;59.90;;;;;;5066967;28;20039;-76
2021/07/30 00:23:07;;;;;;;4.65;3.10;;;18.00;60.00;;;;;;5048680;28;20025;-76
2021/07/30 00:25:32;;;;;;;4.50;3.20;;;17.90;59.90;;;;;;5065865;28;20035;-77
2021/07/30 00:27:58;;;;;;;6.25;3.17;;;17.90;60.00;;;;;;5065337;28;20036;-78
2021/07/30 00:30:24;;;;;;;4.72;3.10;;;17.90;60.10;;;;;;5065957;28;20037;-76
2021/07/30 00:32:50;;;;;;;7.25;3.58;;;17.90;60.20;;;;;;5065945;28;20033;-76
2021/07/30 00:35:16;;;;;;;4.38;2.80;;;17.90;60.20;;;;;;5066597;28;20036;-76
2021/07/30 00:37:42;;;;;;;3.92;3.03;;;17.90;60.30;;;;;;5066722;28;20115;-76
2021/07/30 00:40:09;;;;;;;5.05;3.60;;;17.80;60.20;;;;;;5066317;28;20143;-77
2021/07/30 00:42:36;;;;;;;4.95;2.55;;;17.80;60.30;;;;;;5066265;28;20033;-76
2021/07/30 00:45:03;;;;;;;3.72;2.80;;;17.80;60.40;;;;;;5064224;28;20032;-78
2021/07/30 00:47:30;;;;;;;5.10;3.20;;;17.80;60.50;;;;;;5064518;28;20086;-77
2021/07/30 00:49:58;;;;;;;4.07;3.35;;;17.80;60.60;;;;;;5047853;28;20029;-77
2021/07/30 00:52:26;;;;;;;4.88;3.33;;;17.80;60.60;;;;;;5066137;28;20032;-76
2021/07/30 00:54:53;;;;;;;4.25;2.88;;;17.70;60.50;;;;;;5066136;28;20032;-76
2021/07/30 00:57:21;;;;;;;3.95;2.40;;;17.80;60.70;;;;;;5065360;28;20025;-77
2021/07/30 00:59:47;;;;;;;4.22;3.17;;;17.80;60.90;;;;;;5065701;28;20036;-77
2021/07/30 01:02:14;;;;;;;7.50;3.58;;;17.70;60.70;;;;;;5063533;28;20052;-77
2021/07/30 01:04:40;;;;;;;3.38;3.00;;;17.70;60.80;;;;;;5047608;28;20075;-76
2021/07/30 01:07:06;;;;;;;3.05;2.78;;;17.70;60.90;;;;;;5065143;28;20492;-78
2021/07/30 01:09:32;;;;;;;3.15;2.85;;;17.70;60.90;;;;;;5064753;28;20464;-77
2021/07/30 01:12:01;;;;;;;3.97;3.05;;;17.70;61.00;;;;;;5065530;28;20041;-77
2021/07/30 01:14:28;;;;;;;6.30;3.22;;;17.70;61.00;;;;;;5064493;28;20039;-77
2021/07/30 01:16:54;;;;;;;4.88;3.15;;;17.70;61.10;;;;;;5063249;28;20119;-77
2021/07/30 01:19:22;;;;;;;4.97;3.63;;;17.60;61.00;;;;;;5055794;28;20131;-76
2021/07/30 01:21:52;;;;;;;3.30;3.00;;;17.60;61.10;;;;;;5065069;28;20020;-77
2021/07/30 01:24:19;;;;;;;6.40;3.17;;;17.60;61.10;;;;;;5065356;28;20064;-78
2021/07/30 01:26:46;;;;;;;4.68;3.53;;;17.60;61.20;;;;;;5064400;28;20028;-77
2021/07/30 01:29:12;;;;;;;3.63;3.13;;;17.60;61.20;;;;;;5065676;28;20051;-76
2021/07/30 01:31:38;;;;;;;3.88;3.13;;;17.50;61.10;;;;;;5059730;28;20484;-76
2021/07/30 01:34:05;;;;;;;4.55;3.13;;;17.60;61.40;;;;;;5059016;28;20409;-76
2021/07/30 01:36:30;;;;;;;6.25;3.13;;;17.60;61.40;;;;;;5067372;28;20025;-76
2021/07/30 01:38:56;;;;;;;4.20;2.95;;;17.60;61.50;;;;;;5066990;28;20049;-76
2021/07/30 01:41:23;;;;;;;3.33;2.72;;;17.50;61.30;;;;;;5067036;28;20028;-76
2021/07/30 01:43:49;;;;;;;3.45;2.65;;;17.60;61.60;;;;;;5065661;28;20040;-76
2021/07/30 01:46:15;;;;;;;3.63;2.90;;;17.60;61.60;;;;;;5061531;28;20369;-76
2021/07/30 01:48:41;;;;;;;4.75;3.13;;;17.50;61.40;;;;;;5059064;28;20025;-76
2021/07/30 01:51:08;;;;;;;5.68;2.92;;;17.50;61.50;;;;;;5065951;28;20032;-76
2021/07/30 01:53:34;;;;;;;4.70;3.53;;;17.50;61.60;;;;;;5070349;28;20468;-76
2021/07/30 01:56:07;;;;;;;6.00;3.47;;;17.50;61.60;;;;;;5068753;28;20476;-77
2021/07/30 01:58:36;;;;;;;4.73;3.13;;;17.50;61.70;;;;;;5070266;28;20520;-77
2021/07/30 02:01:03;;;;;;;5.35;3.30;;;17.50;61.70;;;;;;5068293;28;20028;-77
2021/07/30 02:03:30;;;;;;;3.33;3.03;;;17.50;61.70;;;;;;5073381;28;20036;-77
2021/07/30 02:05:56;;;;;;;4.15;3.25;;;17.50;61.80;;;;;;5085762;28;20024;-77
2021/07/30 02:08:22;;;;;;;3.65;3.17;;;17.50;61.90;;;;;;5063164;28;20052;-77
2021/07/30 02:10:48;;;;;;;3.47;2.65;;;17.50;61.90;;;;;;5050155;28;20039;-77
2021/07/30 02:15:59;;;;;;;4.38;3.22;;;17.50;62.00;;;;;;5049397;28;20061;-79
2021/07/30 02:18:25;;;;;;;3.03;2.60;;;17.50;62.00;;;;;;5051454;28;20542;-77
2021/07/30 02:20:50;;;;;;;2.53;2.28;;;17.50;62.60;;;;;;5053720;28;20037;-78
2021/07/30 02:23:16;;;;;;;4.00;2.92;;;17.40;61.90;;;;;;5053415;28;20029;-78
2021/07/30 02:25:42;;;;;;;4.25;3.00;;;17.50;62.10;;;;;;5053708;28;20025;-77
2021/07/30 02:28:08;;;;;;;4.72;2.58;;;17.40;62.00;;;;;;5053679;28;20104;-77
2021/07/30 02:30:34;;;;;;;4.25;2.40;;;17.40;62.00;;;;;;5053590;28;20037;-77
2021/07/30 02:33:00;;;;;;;4.50;2.78;;;17.40;62.10;;;;;;5053524;28;20373;-78
2021/07/30 02:35:26;;;;;;;3.50;2.63;;;17.40;62.10;;;;;;5053513;28;20041;-77
2021/07/30 02:37:52;;;;;;;4.85;2.65;;;17.40;62.20;;;;;;5053181;28;20119;-78
2021/07/30 02:40:18;;;;;;;4.53;2.40;;;17.40;62.20;;;;;;5053111;28;20132;-76
2021/07/30 02:42:44;;;;;;;4.32;2.80;;;17.40;62.20;;;;;;5051905;28;20032;-77
2021/07/30 02:45:11;;;;;;;5.15;2.55;;;17.30;62.10;;;;;;5068239;28;20029;-76
2021/07/30 02:47:36;;;;;;;4.60;2.75;;;17.30;62.10;;;;;;5053000;28;20392;-76
2021/07/30 02:50:04;;;;;;;3.90;2.40;;;17.30;62.20;;;;;;5053261;28;20037;-76
2021/07/30 02:52:30;;;;;;;3.03;2.22;;;17.30;62.20;;;;;;5051785;28;20043;-76
2021/07/30 02:54:56;;;;;;;4.85;3.00;;;17.30;62.30;;;;;;5052955;28;20032;-76
2021/07/30 02:57:22;;;;;;;3.50;2.50;;;17.30;62.40;;;;;;5053152;28;20480;-77
2021/07/30 02:59:48;;;;;;;7.15;2.85;;;17.20;62.20;;;;;;5051387;28;20037;-76
2021/07/30 03:02:14;;;;;;;5.75;2.75;;;17.20;62.30;;;;;;5052848;28;20028;-75
2021/07/30 03:04:40;;;;;;;4.85;2.88;;;17.20;62.40;;;;;;5052284;28;20029;-75
2021/07/30 03:07:06;;;;;;;5.50;2.78;;;17.20;62.50;;;;;;5053087;28;20025;-74
2021/07/30 03:09:32;;;;;;;5.38;2.97;;;17.20;62.50;;;;;;5068360;28;20061;-77
2021/07/30 03:11:59;;;;;;;7.60;2.80;;;17.20;62.50;;;;;;5052433;28;20056;-76
2021/07/30 03:14:25;;;;;;;6.28;2.63;;;17.20;62.60;;;;;;5068172;28;20037;-76
2021/07/30 03:16:51;;;;;;;6.60;3.30;;;17.20;62.60;;;;;;5051765;28;20033;-77
2021/07/30 03:19:17;;;;;;;8.23;3.17;;;17.20;62.70;;;;;;5068149;28;20036;-76
2021/07/30 03:21:43;;;;;;;8.70;3.28;;;17.10;62.60;;;;;;5052309;28;20029;-76
2021/07/30 03:24:09;;;;;;;5.72;2.90;;;17.10;62.60;;;;;;5052655;28;20029;-76
2021/07/30 03:26:36;;;;;;;7.80;3.63;;;17.10;62.60;;;;;;5052248;28;20035;-77
2021/07/30 03:29:04;;;;;;;7.82;2.97;;;17.10;62.60;;;;;;5065087;28;20025;-75
2021/07/30 03:31:30;;;;;;;6.75;3.05;;;17.10;62.70;;;;;;5070777;28;20033;-76
2021/07/30 03:33:57;;;;;;;5.63;2.97;;;17.10;62.70;;;;;;5072330;28;20236;-78
2021/07/30 03:36:22;;;;;;;9.95;3.15;;;17.10;62.80;;;;;;5070978;28;20495;-76
2021/07/30 03:38:48;;;;;;;5.93;3.05;;;17.10;62.80;;;;;;5071782;28;20032;-75
2021/07/30 03:41:14;;;;;;;5.82;3.10;;;17.10;62.80;;;;;;5072219;28;20086;-76
2021/07/30 03:43:40;;;;;;;5.60;2.53;;;17.00;62.70;;;;;;5072076;28;20412;-75
2021/07/30 03:46:06;;;;;;;10.10;2.92;;;17.00;62.80;;;;;;5071661;28;20035;-76
2021/07/30 03:48:32;;;;;;;5.47;2.95;;;17.00;62.80;;;;;;5072028;28;20040;-78
2021/07/30 03:50:58;;;;;;;6.32;2.55;;;17.00;62.80;;;;;;5071919;28;20174;-76
2021/07/30 03:53:24;;;;;;;6.88;2.67;;;17.00;62.90;;;;;;5070751;28;20021;-76
2021/07/30 03:55:50;;;;;;;9.60;3.65;;;17.00;62.90;;;;;;5071881;28;20542;-77
2021/07/30 03:58:16;;;;;;;5.85;2.92;;;17.00;63.00;;;;;;5071658;28;20029;-75
2021/07/30 04:00:42;;;;;;;7.50;2.85;;;17.00;63.00;;;;;;5071685;28;20379;-76
2021/07/30 04:03:08;;;;;;;6.28;2.90;;;17.00;63.00;;;;;;5053853;28;20119;-76
2021/07/30 04:05:35;;;;;;;10.00;3.60;;;17.00;63.00;;;;;;5070710;28;20108;-75
2021/07/30 04:08:01;;;;;;;8.23;2.70;;;17.00;63.10;;;;;;5069952;28;20592;-77
2021/07/30 04:10:29;;;;;;;7.28;3.30;;;17.00;63.10;;;;;;5070395;28;20036;-76
2021/07/30 04:12:55;;;;;;;8.57;3.40;;;17.00;63.20;;;;;;5072097;28;20056;-75
2021/07/30 04:15:20;;;;;;;8.25;3.30;;;17.00;63.20;;;;;;5070934;28;20510;-75
2021/07/30 04:17:48;;;;;;;6.97;3.13;;;17.00;63.20;;;;;;5071053;28;20043;-76
2021/07/30 04:20:14;;;;;;;5.85;3.35;;;17.00;63.20;;;;;;5071572;28;20033;-76
2021/07/30 04:22:40;;;;;;;6.47;3.20;;;17.00;63.30;;;;;;5071541;28;20479;-76
2021/07/30 04:25:07;;;;;;;6.90;2.55;;;17.00;63.30;;;;;;5070858;28;20036;-75
2021/07/30 04:27:33;;;;;;;7.60;3.03;;;17.00;63.40;;;;;;5070310;28;20031;-75
2021/07/30 04:29:59;;;;;;;11.68;3.05;;;17.00;63.40;;;;;;5071178;28;20036;-77
2021/07/30 04:32:25;;;;;;;8.80;3.05;;;17.00;63.50;;;;;;5071430;28;20395;-77
2021/07/30 04:34:51;;;;;;;8.00;3.10;;;17.00;63.60;;;;;;5071236;28;20050;-78
2021/07/30 04:37:17;;;;;;;6.28;2.95;;;17.00;63.60;;;;;;5071031;28;20119;-75
2021/07/30 04:39:43;;;;;;;7.13;2.55;;;17.00;63.70;;;;;;5070878;28;20119;-75
2021/07/30 04:42:09;;;;;;;7.82;2.85;;;17.00;63.70;;;;;;5069293;28;20063;-75
2021/07/30 04:44:35;;;;;;;6.60;2.70;;;17.00;63.70;;;;;;5053097;28;20033;-75
2021/07/30 04:47:02;;;;;;;7.43;2.85;;;17.00;63.80;;;;;;5069102;28;20028;-76
2021/07/30 04:49:28;;;;;;;7.10;2.70;;;17.00;64.40;;;;;;5067397;28;20028;-75
2021/07/30 04:51:54;;;;;;;6.60;3.00;;;16.90;63.70;;;;;;5064695;28;20028;-76
2021/07/30 04:54:20;;;;;;;6.15;2.72;;;17.00;63.90;;;;;;5058876;28;20033;-78
2021/07/30 04:56:46;;;;;;;8.57;3.10;;;17.00;63.90;;;;;;5053655;28;20065;-77
2021/07/30 04:59:12;;;;;;;7.18;2.80;;;17.00;63.90;;;;;;5066574;28;20032;-77
2021/07/30 05:01:42;;;;;;;8.05;3.05;;;17.00;64.00;;;;;;5064723;28;20486;-76
2021/07/30 05:04:11;;;;;;;6.80;2.42;;;17.00;64.00;;;;;;5063826;28;20060;-78
2021/07/30 05:06:37;;;;;;;7.78;2.70;;;17.00;64.10;;;;;;5064362;28;20036;-77
2021/07/30 05:09:03;;;;;;;4.90;2.30;;;16.90;63.90;;;;;;5076412;28;20055;-77
2021/07/30 05:11:29;;;;;;;7.57;3.38;;;17.00;64.10;;;;;;5063147;28;20111;-77
2021/07/30 05:13:55;;;;;;;7.50;2.88;;;17.00;64.10;;;;;;5054969;28;20606;-75
2021/07/30 05:16:21;;;;;;;6.30;2.40;;;17.00;64.10;;;;;;5046301;28;20029;-78
2021/07/30 05:18:47;;;;;;;6.35;2.60;;;17.00;64.10;;;;;;5057984;28;20033;-76
2021/07/30 05:21:13;;;;;;;5.93;2.47;;;17.00;64.10;;;;;;5065940;28;20124;-76
2021/07/30 05:23:39;;;;;;;6.53;2.55;;;17.10;64.30;;;;;;5065681;28;20024;-77
2021/07/30 05:26:05;;;;;;;7.18;2.75;;;17.10;64.30;;;;;;5065382;28;20041;-78
2021/07/30 05:28:32;;;;;;;5.88;2.58;;;17.10;64.30;;;;;;5063939;28;20059;-77
2021/07/30 05:30:58;;;;;;;5.35;2.45;;;17.10;64.30;;;;;;5064782;28;20116;-79
2021/07/30 05:33:28;;;;;;;5.63;2.60;;;17.10;64.30;;;;;;5064708;28;20036;-81
2021/07/30 05:35:55;;;;;;;7.72;3.00;;;17.10;64.30;;;;;;5066485;28;20447;-77
2021/07/30 05:38:22;;;;;;;7.57;2.58;;;17.10;64.20;;;;;;5066251;28;20036;-81
2021/07/30 05:40:48;;;;;;;7.95;3.28;;;17.20;64.50;;;;;;5066152;28;20064;-81
2021/07/30 05:43:14;;;;;;;6.38;2.95;;;17.10;64.30;;;;;;5066173;28;20032;-79
2021/07/30 05:45:40;;;;;;;7.90;3.38;;;17.20;65.00;;;;;;5056575;28;20037;-78
2021/07/30 05:48:07;;;;;;;6.55;2.45;;;17.10;64.30;;;;;;5064084;28;20036;-80
2021/07/30 05:50:34;;;;;;;8.30;3.70;;;17.20;64.50;;;;;;5065520;28;20336;-78
2021/07/30 05:53:00;;;;;;;7.00;2.47;;;17.20;64.50;;;;;;5066688;28;20028;-78
2021/07/30 05:55:26;;;;;;;6.70;2.67;;;17.20;64.50;;;;;;5067798;28;20036;-77
2021/07/30 05:57:52;;;;;;;10.52;3.53;;;17.30;64.70;;;;;;5067917;28;20044;-77
2021/07/30 06:00:18;;;;;;;21.70;6.20;;;17.30;64.80;;;;;;5066768;28;20143;-74
2021/07/30 06:02:43;;;;;;;22.73;5.60;;;17.30;65.00;;;;;;5062574;28;20024;-76
2021/07/30 06:05:10;;;;;;;24.10;6.88;;;17.40;65.40;;;;;;5066522;28;20052;-74
2021/07/30 06:07:36;;;;;;;17.92;5.45;;;17.50;65.60;;;;;;5061110;28;20040;-76
2021/07/30 06:10:02;;;;;;;22.90;5.90;;;17.50;65.70;;;;;;5059723;28;20116;-74
2021/07/30 06:12:29;;;;;;;24.77;6.95;;;17.50;65.80;;;;;;5060590;28;20031;-79
2021/07/30 06:14:55;;;;;;;22.23;6.72;;;17.50;65.90;;;;;;5056059;28;20458;-78
2021/07/30 06:17:21;;;;;;;26.33;6.38;;;17.50;66.00;;;;;;5082804;28;20132;-79
2021/07/30 06:19:47;;;;;;;25.73;6.13;;;17.50;66.10;;;;;;5042477;28;20090;-77
2021/07/30 06:22:13;;;;;;;19.13;5.22;;;17.50;66.20;;;;;;5065895;28;20028;-82
2021/07/30 06:24:39;;;;;;;22.73;6.25;;;17.50;66.20;;;;;;5059411;28;20082;-81
2021/07/30 06:27:05;;;;;;;16.88;5.85;;;17.50;66.30;;;;;;5054767;28;20535;-76
2021/07/30 06:29:32;;;;;;;16.33;5.63;;;17.60;66.50;;;;;;5068898;28;20086;-78
2021/07/30 06:31:59;;;;;;;18.98;6.07;;;17.60;66.50;;;;;;5058055;28;20056;-77
2021/07/30 06:34:25;;;;;;;18.63;6.00;;;17.50;66.50;;;;;;5063284;28;20041;-78
2021/07/30 06:36:56;;;;;;;16.40;5.72;;;17.60;67.00;;;;;;5046905;28;20087;-78
2021/07/30 06:39:22;;;;;;;16.13;4.53;;;17.60;67.20;;;;;;5079197;28;20036;-79
2021/07/30 06:41:48;;;;;;;18.20;5.50;;;17.60;67.20;;;;;;5066624;28;20029;-76
2021/07/30 06:44:14;;;;;;;16.92;5.78;;;17.70;67.50;;;;;;5066314;28;20029;-77
2021/07/30 06:46:40;;;;;;;16.13;5.07;;;17.70;67.50;;;;;;5066841;28;20124;-77
2021/07/30 06:49:06;;;;;;;14.32;4.90;;;17.80;67.70;;;;;;5065974;28;20573;-77
2021/07/30 06:51:33;;;;;;;15.15;5.20;;;17.90;67.90;;;;;;5064106;28;20067;-78
2021/07/30 06:54:00;;;;;;;15.80;4.28;;;18.00;67.80;;;;;;5067048;28;20021;-78
2021/07/30 06:56:26;;;;;;;13.45;4.57;;;18.10;67.80;;;;;;5083140;28;20033;-78
2021/07/30 06:58:52;;;;;;;18.75;4.97;;;18.10;67.80;;;;;;5065264;28;20127;-77
2021/07/30 07:01:18;;;;;;;15.95;5.25;;;18.20;67.80;;;;;;5067559;28;20468;-77
2021/07/30 07:03:44;;;;;;;12.52;4.05;;;18.30;67.80;;;;;;5065011;28;20067;-76
2021/07/30 07:06:17;;;;;;;16.90;4.95;;;18.20;67.60;;;;;;5066532;28;20021;-75
2021/07/30 07:08:43;;;;;;;16.80;4.43;;;18.20;67.60;;;;;;5067577;28;20110;-75
2021/07/30 07:11:10;;;;;;;13.95;4.68;;;18.20;67.50;;;;;;5068009;28;20805;-76
2021/07/30 07:13:41;;;;;;;9.30;4.25;;;18.30;67.70;;;;;;5066000;28;20471;-75
2021/07/30 07:16:07;;;;;;;13.82;4.20;;;18.30;67.70;;;;;;5066396;28;20075;-75
2021/07/30 07:18:33;;;;;;;7.50;3.20;;;18.40;67.80;;;;;;5065529;28;20039;-77
2021/07/30 07:20:59;;;;;;;8.45;3.78;;;18.40;67.70;;;;;;5067783;28;20051;-77
2021/07/30 07:23:26;;;;;;;12.75;4.45;;;18.50;67.80;;;;;;5067824;28;20460;-76
2021/07/30 07:25:52;;;;;;;9.55;3.88;;;18.40;67.50;;;;;;5067460;28;20029;-76
2021/07/30 07:28:18;;;;;;;10.30;3.30;;;18.50;67.60;;;;;;5066928;28;20094;-78
2021/07/30 07:30:45;;;;;;;7.13;2.97;;;18.50;67.60;;;;;;5066261;28;20046;-77
2021/07/30 07:33:11;;;;;;;10.85;3.42;;;18.50;67.60;;;;;;5066816;28;20029;-74
2021/07/30 07:35:37;;;;;;;11.90;3.40;;;18.50;67.50;;;;;;5067733;28;20040;-73
2021/07/30 07:38:04;;;;;;;10.85;3.40;;;18.50;67.50;;;;;;5067170;28;20493;-74
2021/07/30 07:40:31;;;;;;;9.60;2.95;;;18.50;67.60;;;;;;5066275;28;20048;-75
2021/07/30 07:42:57;;;;;;;11.02;3.70;;;18.50;67.60;;;;;;5049419;28;20675;-74
2021/07/30 07:45:24;;;;;;;9.63;3.05;;;18.60;67.80;;;;;;5083096;28;20044;-73
2021/07/30 07:47:50;;;;;;;8.32;2.83;;;18.60;67.70;;;;;;5066502;28;20048;-74
2021/07/30 07:50:16;;;;;;;8.35;2.85;;;18.70;67.90;;;;;;5066518;28;20069;-72
2021/07/30 07:52:42;;;;;;;8.35;3.60;;;18.70;67.80;;;;;;5067279;28;20025;-76
2021/07/30 07:55:08;;;;;;;11.15;3.47;;;18.80;68.10;;;;;;5067338;28;20032;-73
2021/07/30 07:57:34;;;;;;;9.07;3.10;;;18.80;68.10;;;;;;5065621;28;20029;-77
2021/07/30 08:00:00;;;;;;;8.50;3.17;;;18.90;68.20;;;;;;5065613;28;20059;-77
2021/07/30 08:02:26;;;;;;;13.80;3.38;;;18.90;68.20;;;;;;5066379;28;20051;-74
2021/07/30 08:04:52;;;;;;;11.32;3.28;;;19.00;68.50;;;;;;5066981;28;20111;-76
2021/07/30 08:07:18;;;;;;;7.68;2.70;;;19.00;68.50;;;;;;5065259;28;20058;-77
2021/07/30 08:09:45;;;;;;;13.30;3.30;;;19.00;68.50;;;;;;5066513;28;20047;-79
2021/07/30 08:12:11;;;;;;;7.63;2.88;;;19.10;68.70;;;;;;5048592;28;20085;-75
2021/07/30 08:14:38;;;;;;;9.13;2.88;;;19.10;68.70;;;;;;5066309;28;20530;-76
2021/07/30 08:17:04;;;;;;;6.50;3.28;;;19.20;68.90;;;;;;5065037;28;20028;-79
2021/07/30 08:19:34;;;;;;;9.35;2.83;;;19.20;68.90;;;;;;5064832;28;20053;-77
2021/07/30 08:22:01;;;;;;;10.25;2.85;;;19.30;69.00;;;;;;5065399;28;20032;-78
2021/07/30 08:24:27;;;;;;;7.50;2.60;;;19.30;68.90;;;;;;5066420;28;20025;-78
2021/07/30 08:26:53;;;;;;;10.43;2.78;;;19.40;69.00;;;;;;5065161;28;20035;-76
2021/07/30 08:29:19;;;;;;;7.63;3.00;;;19.40;68.90;;;;;;5066018;28;20028;-77
2021/07/30 08:31:45;;;;;;;4.55;2.35;;;19.50;68.90;;;;;;5066576;28;20064;-76
2021/07/30 08:34:12;;;;;;;6.07;2.55;;;19.50;68.80;;;;;;5064969;28;20032;-77
2021/07/30 08:36:38;;;;;;;6.35;2.40;;;19.50;68.80;;;;;;5042411;28;20103;-76
2021/07/30 08:39:04;;;;;;;6.05;2.30;;;19.60;69.10;;;;;;5064122;28;20044;-78
2021/07/30 08:41:30;;;;;;;5.70;2.28;;;19.70;69.10;;;;;;5081774;28;20486;-78
2021/07/30 08:43:56;;;;;;;4.70;2.10;;;19.80;69.10;;;;;;5069746;28;20116;-78
2021/07/30 08:46:24;;;;;;;5.25;2.33;;;19.90;69.20;;;;;;5065852;28;20024;-76
2021/07/30 08:48:50;;;;;;;6.53;2.55;;;20.10;69.40;;;;;;5064991;28;20024;-79
2021/07/30 08:51:19;;;;;;;7.22;3.00;;;20.30;69.30;;;;;;5065707;28;20028;-77
2021/07/30 08:53:46;;;;;;;6.95;2.78;;;20.50;69.30;;;;;;5064563;28;20028;-78
2021/07/30 08:56:13;;;;;;;8.25;2.20;;;20.60;69.10;;;;;;5064884;28;20405;-80
2021/07/30 08:58:39;;;;;;;5.20;1.85;;;20.70;69.00;;;;;;5064376;28;20035;-78
2021/07/30 09:01:06;;;;;;;5.85;2.38;;;20.80;69.00;;;;;;5065793;28;20059;-78
2021/07/30 09:03:36;;;;;;;6.78;1.95;;;20.90;68.90;;;;;;5066172;28;20032;-78
2021/07/30 09:06:22;;;;;;;4.93;2.28;;;21.00;68.80;;;;;;5064893;28;20029;-77
2021/07/30 09:09:08;;;;;;;4.22;1.80;;;21.00;68.70;;;;;;5065113;28;20136;-78
2021/07/30 09:11:38;;;;;;;2.58;1.70;;;21.00;68.50;;;;;;5065639;28;20495;-78
2021/07/30 09:14:09;;;;;;;5.78;2.13;;;21.10;68.50;;;;;;5065496;28;20446;-79
2021/07/30 09:16:53;;;;;;;3.05;1.73;;;21.10;68.40;;;;;;5064303;28;20089;-81
2021/07/30 09:19:20;;;;;;;3.35;1.95;;;21.00;68.20;;;;;;5064268;28;20043;-80
2021/07/30 09:21:46;;;;;;;4.45;1.25;;;21.00;68.10;;;;;;5065685;28;20029;-81
2021/07/30 09:24:17;;;;;;;3.58;1.67;;;21.10;68.30;;;;;;5055549;28;20029;-78
2021/07/30 09:26:53;;;;;;;2.72;1.00;;;21.10;68.20;;;;;;5062552;28;20031;-80
2021/07/30 09:29:30;;;;;;;4.03;1.60;;;21.10;68.10;;;;;;5069464;28;20036;-78
2021/07/30 09:32:03;;;;;;;2.30;1.33;;;21.10;67.90;;;;;;5070170;28;20035;-78
2021/07/30 09:34:40;;;;;;;3.75;1.50;;;21.10;67.80;;;;;;5069032;28;20031;-79
2021/07/30 09:37:08;;;;;;;2.33;1.23;;;21.10;67.70;;;;;;5069671;28;20047;-79
2021/07/30 09:39:36;;;;;;;2.33;1.40;;;21.20;67.80;;;;;;5068239;28;20048;-78
2021/07/30 09:42:06;;;;;;;2.40;1.33;;;21.20;67.70;;;;;;5069765;28;20032;-81
2021/07/30 09:44:34;;;;;;;4.97;1.70;;;21.20;67.60;;;;;;5069953;28;20032;-78
2021/07/30 09:47:16;;;;;;;3.40;1.10;;;21.20;67.50;;;;;;5069758;28;20032;-77
2021/07/30 09:49:46;;;;;;;2.22;1.30;;;21.20;67.50;;;;;;5069424;28;20047;-80
2021/07/30 09:52:17;;;;;;;2.33;0.80;;;21.10;67.20;;;;;;5068121;28;20548;-79
2021/07/30 09:54:51;;;;;;;2.67;1.20;;;21.10;67.20;;;;;;5068039;28;20503;-80
2021/07/30 09:57:20;;;;;;;1.67;0.95;;;21.10;67.20;;;;;;5068818;28;20055;-79
2021/07/30 09:59:47;;;;;;;2.25;1.20;;;21.10;67.30;;;;;;5051578;28;20106;-81
2021/07/30 10:02:21;;;;;;;1.38;0.80;;;21.10;67.30;;;;;;5069613;28;20032;-80
2021/07/30 10:04:49;;;;;;;1.55;0.90;;;21.10;67.30;;;;;;5068272;28;20549;-82
2021/07/30 10:07:21;;;;;;;1.45;0.93;;;21.20;67.30;;;;;;5069188;28;20028;-80
2021/07/30 10:10:01;;;;;;;1.42;0.82;;;21.30;67.10;;;;;;5069369;28;20041;-79
2021/07/30 10:12:29;;;;;;;3.03;1.05;;;21.40;67.10;;;;;;5069109;28;20036;-79
2021/07/30 10:14:57;;;;;;;3.28;1.10;;;21.40;66.90;;;;;;5069535;28;20403;-80
2021/07/30 10:17:28;;;;;;;4.18;0.93;;;21.40;66.80;;;;;;5068160;28;20020;-77
2021/07/30 10:19:56;;;;;;;1.30;0.80;;;21.40;66.80;;;;;;5068740;28;20511;-77
2021/07/30 10:22:23;;;;;;;2.75;1.00;;;21.50;66.90;;;;;;5069427;28;20032;-78
2021/07/30 10:24:53;;;;;;;2.10;0.98;;;21.50;66.90;;;;;;5068368;28;20036;-77
2021/07/30 10:27:23;;;;;;;1.98;1.05;;;21.50;66.80;;;;;;5068912;28;20082;-79
2021/07/30 10:30:02;;;;;;;1.40;0.95;;;21.50;67.30;;;;;;5068694;28;20021;-78
2021/07/30 10:32:44;;;;;;;1.70;0.90;;;21.60;66.90;;;;;;5063186;28;20034;-77
2021/07/30 10:35:12;;;;;;;2.10;1.13;;;21.70;66.80;;;;;;5049549;28;20510;-77
2021/07/30 10:37:42;;;;;;;1.45;1.00;;;21.80;66.80;;;;;;5049750;28;20439;-79
2021/07/30 10:40:37;;;;;;;1.25;0.90;;;22.00;67.00;;;;;;5083458;28;20036;-77
2021/07/30 10:43:14;;;;;;;2.10;0.93;;;22.30;67.10;;;;;;5071234;28;20032;-76
2021/07/30 10:45:42;;;;;;;0.52;0.52;;;22.50;66.90;;;;;;5068326;28;20097;-75
2021/07/30 10:48:14;;;;;;;2.83;1.10;;;22.70;66.80;;;;;;5067389;28;20373;-76
2021/07/30 10:50:56;;;;;;;1.08;0.70;;;22.80;66.60;;;;;;5067482;28;20044;-75
2021/07/30 10:55:58;;;;;;;1.17;0.60;;;22.90;66.30;;;;;;5068173;28;20107;-75
2021/07/30 10:58:39;;;;;;;0.70;0.65;;;23.00;66.50;;;;;;5066853;28;20028;-77
2021/07/30 11:01:06;;;;;;;1.13;0.63;;;23.10;66.60;;;;;;5067446;28;20479;-77
2021/07/30 11:03:53;;;;;;;0.73;0.73;;;23.20;66.50;;;;;;5067523;28;20036;-77
2021/07/30 11:06:28;;;;;;;0.82;0.70;;;23.30;66.40;;;;;;5054947;28;20498;-76
2021/07/30 11:09:03;;;;;;;1.50;1.17;;;23.50;66.40;;;;;;5056223;28;20052;-75
2021/07/30 11:11:43;;;;;;;1.52;1.30;;;23.50;65.50;;;;;;5063310;28;20114;-80
2021/07/30 11:14:28;;;;;;;1.30;0.90;;;23.60;65.40;;;;;;5057456;28;20190;-78
2021/07/30 11:16:56;;;;;;;2.08;0.90;;;23.60;65.30;;;;;;5063242;28;20370;-77
2021/07/30 11:19:31;;;;;;;3.85;0.90;;;23.60;65.30;;;;;;5062429;28;20391;-77
2021/07/30 11:21:58;;;;;;;1.50;1.10;;;23.70;65.90;;;;;;5046889;28;20461;-77
2021/07/30 11:24:24;;;;;;;1.65;0.80;;;23.80;65.40;;;;;;5064680;28;20577;-78
2021/07/30 11:26:51;;;;;;;1.27;0.70;;;24.00;65.50;;;;;;5038513;28;20064;-76
2021/07/30 11:29:19;;;;;;;4.40;1.00;;;24.10;65.40;;;;;;5063639;28;20028;-76
2021/07/30 11:31:56;;;;;;;3.70;0.93;;;24.30;65.40;;;;;;5067340;28;20028;-77
2021/07/30 11:34:31;;;;;;;2.55;0.90;;;24.40;65.20;;;;;;5055538;28;20029;-77
2021/07/30 11:37:08;;;;;;;2.45;0.90;;;24.60;65.90;;;;;;5038814;28;20051;-77
2021/07/30 11:39:40;;;;;;;1.65;0.80;;;24.80;65.30;;;;;;5083314;28;20033;-79
2021/07/30 11:42:07;;;;;;;2.72;1.00;;;24.90;65.10;;;;;;5050052;28;20033;-77
2021/07/30 11:44:43;;;;;;;2.35;0.90;;;25.00;65.10;;;;;;5065054;28;20037;-77
2021/07/30 11:47:09;;;;;;;2.22;0.90;;;25.10;65.00;;;;;;5065881;28;20040;-80
2021/07/30 11:49:37;;;;;;;0.73;0.73;;;25.10;65.00;;;;;;5066530;28;20025;-79
2021/07/30 11:52:07;;;;;;;1.35;0.90;;;25.20;64.90;;;;;;5066564;28;20033;-80
2021/07/30 11:54:34;;;;;;;0.88;0.77;;;25.20;64.60;;;;;;5067464;28;20423;-83
2021/07/30 11:57:00;;;;;;;2.65;1.00;;;25.30;64.60;;;;;;5065278;28;20033;-80
2021/07/30 11:59:42;;;;;;;3.42;1.30;;;25.30;64.50;;;;;;5056271;28;20496;-79
2021/07/30 12:02:08;;;;;;;2.63;0.95;;;25.30;64.30;;;;;;5064152;28;20685;-79
2021/07/30 12:04:34;;;;;;;1.17;0.93;;;25.40;64.30;;;;;;5064778;28;20078;-78
2021/07/30 12:07:15;;;;;;;1.42;0.80;;;25.40;64.20;;;;;;5065417;28;20105;-80
2021/07/30 12:09:42;;;;;;;2.95;1.60;;;25.50;64.10;;;;;;5066771;28;20044;-80
2021/07/30 12:12:13;;;;;;;1.50;0.88;;;25.70;64.00;;;;;;5067102;28;20426;-78
2021/07/30 12:14:45;;;;;;;1.20;0.60;;;26.00;63.70;;;;;;5067280;28;20036;-79
2021/07/30 12:17:17;;;;;;;1.00;0.80;;;26.10;63.40;;;;;;5067142;28;20127;-80
2021/07/30 12:19:54;;;;;;;4.03;1.30;;;26.30;63.20;;;;;;5061620;28;20642;-78
2021/07/30 12:22:32;;;;;;;2.75;1.30;;;26.30;62.90;;;;;;5047205;28;20021;-79
2021/07/30 12:24:58;;;;;;;1.42;1.10;;;26.50;62.60;;;;;;5065354;28;20029;-79
2021/07/30 12:27:24;;;;;;;2.00;1.20;;;26.60;62.60;;;;;;5065725;28;20468;-81
2021/07/30 12:29:50;;;;;;;1.45;0.85;;;26.60;62.40;;;;;;5081336;28;20870;-78
2021/07/30 12:32:21;;;;;;;0.95;0.80;;;26.70;62.30;;;;;;5065727;28;20047;-79
2021/07/30 12:35:04;;;;;;;1.90;1.02;;;26.80;62.10;;;;;;5046331;28;20029;-79
2021/07/30 12:37:32;;;;;;;2.15;1.23;;;26.80;61.90;;;;;;5044782;28;20040;-79
2021/07/30 12:40:00;;;;;;;1.40;1.10;;;26.90;61.90;;;;;;5066260;28;20032;-79
2021/07/30 12:42:32;;;;;;;1.38;0.90;;;26.90;61.70;;;;;;5066608;28;20395;-79
2021/07/30 12:45:00;;;;;;;2.28;1.23;;;27.10;61.50;;;;;;5065115;28;20097;-79
2021/07/30 12:47:26;;;;;;;2.47;1.30;;;27.30;61.20;;;;;;5065358;28;20033;-79
2021/07/30 12:49:52;;;;;;;1.98;0.90;;;27.40;60.80;;;;;;5065740;28;20467;-81
2021/07/30 12:52:19;;;;;;;2.60;1.50;;;27.50;60.60;;;;;;5066349;28;20123;-80
2021/07/30 12:54:45;;;;;;;1.10;1.00;;;27.70;60.50;;;;;;5064753;28;20063;-79